sensor_id;sensor_type;location;lat;lon;timestamp;temperature;humidity
53904;DHT22;39812;52.430;16.936;2023-03-20T00:00:47;8.90;92.90
53904;DHT22;39812;52.430;16.936;2023-03-20T00:03:14;8.80;93.10
53904;DHT22;39812;52.430;16.936;2023-03-20T00:05:40;8.80;93.40
53904;DHT22;39812;52.430;16.936;2023-03-20T00:08:06;8.70;93.40
53904;DHT22;39812;52.430;16.936;2023-03-20T00:10:39;8.80;93.50
53904;DHT22;39812;52.430;16.936;2023-03-20T00:13:07;8.70;93.60
53904;DHT22;39812;52.430;16.936;2023-03-20T00:15:37;8.80;93.70
53904;DHT22;39812;52.430;16.936;2023-03-20T00:18:10;8.80;93.50
53904;DHT22;39812;52.430;16.936;2023-03-20T00:20:38;8.90;93.20
53904;DHT22;39812;52.430;16.936;2023-03-20T00:23:03;9.00;93.10
53904;DHT22;39812;52.430;16.936;2023-03-20T00:25:29;9.10;93.00
53904;DHT22;39812;52.430;16.936;2023-03-20T00:27:56;9.10;93.00
53904;DHT22;39812;52.430;16.936;2023-03-20T00:30:28;9.20;93.10
53904;DHT22;39812;52.430;16.936;2023-03-20T00:32:56;9.20;93.00
53904;DHT22;39812;52.430;16.936;2023-03-20T00:35:27;9.30;93.00
53904;DHT22;39812;52.430;16.936;2023-03-20T00:37:55;9.30;93.10
53904;DHT22;39812;52.430;16.936;2023-03-20T00:40:21;9.40;93.10
53904;DHT22;39812;52.430;16.936;2023-03-20T00:42:51;9.40;93.00
53904;DHT22;39812;52.430;16.936;2023-03-20T00:45:19;9.40;93.20
53904;DHT22;39812;52.430;16.936;2023-03-20T00:47:50;9.30;93.20
53904;DHT22;39812;52.430;16.936;2023-03-20T00:50:21;9.20;93.30
53904;DHT22;39812;52.430;16.936;2023-03-20T00:52:48;8.90;93.60
53904;DHT22;39812;52.430;16.936;2023-03-20T00:55:15;8.70;93.70
53904;DHT22;39812;52.430;16.936;2023-03-20T00:58:01;8.50;94.10
53904;DHT22;39812;52.430;16.936;2023-03-20T01:00:41;8.30;94.50
53904;DHT22;39812;52.430;16.936;2023-03-20T01:03:22;8.40;95.20
53904;DHT22;39812;52.430;16.936;2023-03-20T01:05:49;8.40;95.30
53904;DHT22;39812;52.430;16.936;2023-03-20T01:08:21;8.40;95.50
53904;DHT22;39812;52.430;16.936;2023-03-20T01:10:52;8.40;95.60
53904;DHT22;39812;52.430;16.936;2023-03-20T01:13:29;8.40;95.90
53904;DHT22;39812;52.430;16.936;2023-03-20T01:15:56;8.30;96.00
53904;DHT22;39812;52.430;16.936;2023-03-20T01:18:24;8.30;96.30
53904;DHT22;39812;52.430;16.936;2023-03-20T01:20:51;8.30;96.60
53904;DHT22;39812;52.430;16.936;2023-03-20T01:23:18;8.50;96.70
53904;DHT22;39812;52.430;16.936;2023-03-20T01:25:44;8.50;96.60
53904;DHT22;39812;52.430;16.936;2023-03-20T01:28:23;8.50;96.40
53904;DHT22;39812;52.430;16.936;2023-03-20T01:30:49;8.40;96.50
53904;DHT22;39812;52.430;16.936;2023-03-20T01:33:19;8.30;96.70
53904;DHT22;39812;52.430;16.936;2023-03-20T01:35:46;8.20;96.70
53904;DHT22;39812;52.430;16.936;2023-03-20T01:38:23;8.10;96.70
53904;DHT22;39812;52.430;16.936;2023-03-20T01:43:23;7.90;97.10
53904;DHT22;39812;52.430;16.936;2023-03-20T01:51:17;7.90;97.70
53904;DHT22;39812;52.430;16.936;2023-03-20T01:53:46;7.90;97.80
53904;DHT22;39812;52.430;16.936;2023-03-20T01:56:14;8.00;97.80
53904;DHT22;39812;52.430;16.936;2023-03-20T01:58:45;8.00;97.80
53904;DHT22;39812;52.430;16.936;2023-03-20T02:01:13;8.10;97.50
53904;DHT22;39812;52.430;16.936;2023-03-20T02:03:46;8.00;97.50
53904;DHT22;39812;52.430;16.936;2023-03-20T02:06:13;8.00;97.40
53904;DHT22;39812;52.430;16.936;2023-03-20T02:08:46;7.90;97.70
53904;DHT22;39812;52.430;16.936;2023-03-20T02:11:12;7.90;98.10
53904;DHT22;39812;52.430;16.936;2023-03-20T02:13:39;7.90;98.20
53904;DHT22;39812;52.430;16.936;2023-03-20T02:16:11;7.90;98.90
53904;DHT22;39812;52.430;16.936;2023-03-20T02:18:38;7.90;99.60
53904;DHT22;39812;52.430;16.936;2023-03-20T02:21:33;8.00;99.90
53904;DHT22;39812;52.430;16.936;2023-03-20T02:40:43;8.00;99.90
53904;DHT22;39812;52.430;16.936;2023-03-20T02:46:41;8.20;99.90
53904;DHT22;39812;52.430;16.936;2023-03-20T03:02:38;8.50;99.90
53904;DHT22;39812;52.430;16.936;2023-03-20T03:05:15;8.70;99.90
53904;DHT22;39812;52.430;16.936;2023-03-20T03:07:44;8.80;99.90
53904;DHT22;39812;52.430;16.936;2023-03-20T03:10:23;8.80;99.90
53904;DHT22;39812;52.430;16.936;2023-03-20T03:12:52;8.80;99.90
53904;DHT22;39812;52.430;16.936;2023-03-20T03:15:39;8.70;99.90
53904;DHT22;39812;52.430;16.936;2023-03-20T03:18:06;8.70;99.90
53904;DHT22;39812;52.430;16.936;2023-03-20T03:20:37;8.50;99.90
53904;DHT22;39812;52.430;16.936;2023-03-20T03:23:04;8.40;99.90
53904;DHT22;39812;52.430;16.936;2023-03-20T03:25:37;8.30;99.90
53904;DHT22;39812;52.430;16.936;2023-03-20T03:28:14;8.20;99.90
53904;DHT22;39812;52.430;16.936;2023-03-20T03:30:44;8.30;99.90
53904;DHT22;39812;52.430;16.936;2023-03-20T03:33:14;8.40;99.90
53904;DHT22;39812;52.430;16.936;2023-03-20T03:35:45;8.40;99.90
53904;DHT22;39812;52.430;16.936;2023-03-20T03:38:23;8.40;99.90
53904;DHT22;39812;52.430;16.936;2023-03-20T03:43:52;8.30;99.90
53904;DHT22;39812;52.430;16.936;2023-03-20T03:46:43;8.20;99.90
53904;DHT22;39812;52.430;16.936;2023-03-20T03:49:15;8.20;99.90
53904;DHT22;39812;52.430;16.936;2023-03-20T03:51:44;8.20;99.90
53904;DHT22;39812;52.430;16.936;2023-03-20T03:54:17;8.20;99.90
53904;DHT22;39812;52.430;16.936;2023-03-20T03:56:46;8.20;99.90
53904;DHT22;39812;52.430;16.936;2023-03-20T03:59:27;8.10;99.90
53904;DHT22;39812;52.430;16.936;2023-03-20T04:01:55;8.20;99.90
53904;DHT22;39812;52.430;16.936;2023-03-20T04:04:24;8.10;99.90
53904;DHT22;39812;52.430;16.936;2023-03-20T04:06:50;8.00;99.90
53904;DHT22;39812;52.430;16.936;2023-03-20T04:09:17;7.90;99.90
53904;DHT22;39812;52.430;16.936;2023-03-20T04:11:43;7.90;99.90
53904;DHT22;39812;52.430;16.936;2023-03-20T04:14:09;8.00;99.90
53904;DHT22;39812;52.430;16.936;2023-03-20T04:16:36;8.20;99.90
53904;DHT22;39812;52.430;16.936;2023-03-20T04:19:01;8.30;99.90
53904;DHT22;39812;52.430;16.936;2023-03-20T04:21:27;8.20;99.90
53904;DHT22;39812;52.430;16.936;2023-03-20T04:23:53;8.20;99.90
53904;DHT22;39812;52.430;16.936;2023-03-20T04:26:18;8.10;99.90
53904;DHT22;39812;52.430;16.936;2023-03-20T04:28:45;8.20;99.90
53904;DHT22;39812;52.430;16.936;2023-03-20T04:31:11;8.10;99.90
53904;DHT22;39812;52.430;16.936;2023-03-20T04:33:37;8.00;99.90
53904;DHT22;39812;52.430;16.936;2023-03-20T04:36:03;8.00;99.90
53904;DHT22;39812;52.430;16.936;2023-03-20T04:38:28;8.00;99.90
53904;DHT22;39812;52.430;16.936;2023-03-20T04:40:54;8.00;99.90
53904;DHT22;39812;52.430;16.936;2023-03-20T04:43:21;8.10;99.90
53904;DHT22;39812;52.430;16.936;2023-03-20T04:45:46;8.00;99.90
53904;DHT22;39812;52.430;16.936;2023-03-20T04:48:12;8.10;99.90
53904;DHT22;39812;52.430;16.936;2023-03-20T04:50:38;8.10;99.90
53904;DHT22;39812;52.430;16.936;2023-03-20T04:53:04;8.10;99.90
53904;DHT22;39812;52.430;16.936;2023-03-20T04:55:30;8.10;99.90
53904;DHT22;39812;52.430;16.936;2023-03-20T04:57:56;8.20;99.90
53904;DHT22;39812;52.430;16.936;2023-03-20T05:00:21;8.20;99.90
53904;DHT22;39812;52.430;16.936;2023-03-20T05:02:47;8.20;99.90
53904;DHT22;39812;52.430;16.936;2023-03-20T05:05:13;8.10;99.90
53904;DHT22;39812;52.430;16.936;2023-03-20T05:07:39;8.30;99.90
53904;DHT22;39812;52.430;16.936;2023-03-20T05:10:05;8.30;99.90
53904;DHT22;39812;52.430;16.936;2023-03-20T05:12:30;8.30;99.90
53904;DHT22;39812;52.430;16.936;2023-03-20T05:14:56;8.30;99.90
53904;DHT22;39812;52.430;16.936;2023-03-20T05:17:23;8.30;99.90
53904;DHT22;39812;52.430;16.936;2023-03-20T05:19:49;8.30;99.90
53904;DHT22;39812;52.430;16.936;2023-03-20T05:22:17;8.30;99.90
53904;DHT22;39812;52.430;16.936;2023-03-20T05:24:43;8.30;99.90
53904;DHT22;39812;52.430;16.936;2023-03-20T05:27:10;8.20;99.90
53904;DHT22;39812;52.430;16.936;2023-03-20T05:29:36;8.20;99.90
53904;DHT22;39812;52.430;16.936;2023-03-20T05:32:01;8.30;99.90
53904;DHT22;39812;52.430;16.936;2023-03-20T05:34:27;8.30;99.90
53904;DHT22;39812;52.430;16.936;2023-03-20T05:36:53;8.30;99.90
53904;DHT22;39812;52.430;16.936;2023-03-20T05:39:19;8.30;99.90
53904;DHT22;39812;52.430;16.936;2023-03-20T05:41:45;8.30;99.90
53904;DHT22;39812;52.430;16.936;2023-03-20T05:44:11;8.30;99.90
53904;DHT22;39812;52.430;16.936;2023-03-20T05:46:36;8.30;99.90
53904;DHT22;39812;52.430;16.936;2023-03-20T05:49:02;8.30;99.90
53904;DHT22;39812;52.430;16.936;2023-03-20T05:51:28;8.30;99.90
53904;DHT22;39812;52.430;16.936;2023-03-20T05:53:53;8.40;99.90
53904;DHT22;39812;52.430;16.936;2023-03-20T05:56:19;8.40;99.90
53904;DHT22;39812;52.430;16.936;2023-03-20T05:58:45;8.40;99.90
53904;DHT22;39812;52.430;16.936;2023-03-20T06:01:11;8.40;99.90
53904;DHT22;39812;52.430;16.936;2023-03-20T06:03:36;8.40;99.90
53904;DHT22;39812;52.430;16.936;2023-03-20T06:06:03;8.40;99.90
53904;DHT22;39812;52.430;16.936;2023-03-20T06:08:28;8.40;99.90
53904;DHT22;39812;52.430;16.936;2023-03-20T06:10:55;8.40;99.90
53904;DHT22;39812;52.430;16.936;2023-03-20T06:13:21;8.40;99.90
53904;DHT22;39812;52.430;16.936;2023-03-20T06:15:46;8.40;99.90
53904;DHT22;39812;52.430;16.936;2023-03-20T06:18:12;8.40;99.90
53904;DHT22;39812;52.430;16.936;2023-03-20T06:20:38;8.40;99.90
53904;DHT22;39812;52.430;16.936;2023-03-20T06:23:04;8.50;99.90
53904;DHT22;39812;52.430;16.936;2023-03-20T06:25:29;8.50;99.90
53904;DHT22;39812;52.430;16.936;2023-03-20T06:27:55;8.50;99.90
53904;DHT22;39812;52.430;16.936;2023-03-20T06:30:22;8.60;99.90
53904;DHT22;39812;52.430;16.936;2023-03-20T06:32:47;8.60;99.90
53904;DHT22;39812;52.430;16.936;2023-03-20T06:35:13;8.60;99.90
53904;DHT22;39812;52.430;16.936;2023-03-20T06:37:39;8.70;99.90
53904;DHT22;39812;52.430;16.936;2023-03-20T06:40:06;8.80;99.90
53904;DHT22;39812;52.430;16.936;2023-03-20T06:42:32;8.80;99.90
53904;DHT22;39812;52.430;16.936;2023-03-20T06:44:57;8.90;99.90
53904;DHT22;39812;52.430;16.936;2023-03-20T06:47:23;9.00;99.90
53904;DHT22;39812;52.430;16.936;2023-03-20T06:49:49;8.90;99.90
53904;DHT22;39812;52.430;16.936;2023-03-20T06:52:16;9.00;99.90
53904;DHT22;39812;52.430;16.936;2023-03-20T06:54:43;8.90;99.90
53904;DHT22;39812;52.430;16.936;2023-03-20T06:57:09;9.00;99.90
53904;DHT22;39812;52.430;16.936;2023-03-20T06:59:34;8.90;99.90
53904;DHT22;39812;52.430;16.936;2023-03-20T07:02:01;8.90;99.90
53904;DHT22;39812;52.430;16.936;2023-03-20T07:04:27;8.90;99.90
53904;DHT22;39812;52.430;16.936;2023-03-20T07:06:52;9.00;99.90
53904;DHT22;39812;52.430;16.936;2023-03-20T07:09:18;9.00;99.90
53904;DHT22;39812;52.430;16.936;2023-03-20T07:11:44;9.00;99.90
53904;DHT22;39812;52.430;16.936;2023-03-20T07:14:10;9.00;99.90
53904;DHT22;39812;52.430;16.936;2023-03-20T07:16:36;8.90;99.90
53904;DHT22;39812;52.430;16.936;2023-03-20T07:19:02;9.00;99.90
53904;DHT22;39812;52.430;16.936;2023-03-20T07:21:28;9.00;99.90
53904;DHT22;39812;52.430;16.936;2023-03-20T07:23:54;9.10;99.90
53904;DHT22;39812;52.430;16.936;2023-03-20T07:26:20;9.10;99.90
53904;DHT22;39812;52.430;16.936;2023-03-20T07:28:45;9.20;99.90
53904;DHT22;39812;52.430;16.936;2023-03-20T07:31:29;9.20;99.90
53904;DHT22;39812;52.430;16.936;2023-03-20T07:33:55;9.30;99.90
53904;DHT22;39812;52.430;16.936;2023-03-20T07:36:21;9.30;99.90
53904;DHT22;39812;52.430;16.936;2023-03-20T07:38:47;9.50;99.90
53904;DHT22;39812;52.430;16.936;2023-03-20T07:41:12;9.70;99.90
53904;DHT22;39812;52.430;16.936;2023-03-20T07:43:38;10.10;99.90
53904;DHT22;39812;52.430;16.936;2023-03-20T07:46:05;10.40;99.90
53904;DHT22;39812;52.430;16.936;2023-03-20T07:48:32;10.40;99.90
53904;DHT22;39812;52.430;16.936;2023-03-20T07:50:58;10.50;99.90
53904;DHT22;39812;52.430;16.936;2023-03-20T07:53:23;10.50;99.90
53904;DHT22;39812;52.430;16.936;2023-03-20T07:55:49;10.80;99.90
53904;DHT22;39812;52.430;16.936;2023-03-20T07:58:15;11.00;99.90
53904;DHT22;39812;52.430;16.936;2023-03-20T08:00:41;11.20;99.90
53904;DHT22;39812;52.430;16.936;2023-03-20T08:03:06;11.20;99.90
53904;DHT22;39812;52.430;16.936;2023-03-20T08:05:32;11.40;99.90
53904;DHT22;39812;52.430;16.936;2023-03-20T08:07:58;11.70;99.90
53904;DHT22;39812;52.430;16.936;2023-03-20T08:10:24;11.80;99.90
53904;DHT22;39812;52.430;16.936;2023-03-20T08:12:50;12.10;99.90
53904;DHT22;39812;52.430;16.936;2023-03-20T08:15:15;12.40;99.90
53904;DHT22;39812;52.430;16.936;2023-03-20T08:17:45;12.80;99.90
53904;DHT22;39812;52.430;16.936;2023-03-20T08:20:12;12.70;99.90
53904;DHT22;39812;52.430;16.936;2023-03-20T08:22:38;12.60;99.90
53904;DHT22;39812;52.430;16.936;2023-03-20T08:25:05;12.40;99.90
53904;DHT22;39812;52.430;16.936;2023-03-20T08:27:33;12.50;99.90
53904;DHT22;39812;52.430;16.936;2023-03-20T08:29:58;12.30;99.90
53904;DHT22;39812;52.430;16.936;2023-03-20T08:32:24;12.10;99.90
53904;DHT22;39812;52.430;16.936;2023-03-20T08:34:51;12.20;99.90
53904;DHT22;39812;52.430;16.936;2023-03-20T08:37:19;11.90;99.90
53904;DHT22;39812;52.430;16.936;2023-03-20T08:39:45;11.70;99.90
53904;DHT22;39812;52.430;16.936;2023-03-20T08:42:10;11.60;99.90
53904;DHT22;39812;52.430;16.936;2023-03-20T08:44:36;11.40;99.90
53904;DHT22;39812;52.430;16.936;2023-03-20T08:47:02;11.30;99.90
53904;DHT22;39812;52.430;16.936;2023-03-20T08:49:30;11.60;99.90
53904;DHT22;39812;52.430;16.936;2023-03-20T08:51:56;11.60;99.90
53904;DHT22;39812;52.430;16.936;2023-03-20T08:54:22;11.70;99.90
53904;DHT22;39812;52.430;16.936;2023-03-20T08:56:47;11.80;99.90
53904;DHT22;39812;52.430;16.936;2023-03-20T08:59:13;12.00;99.90
53904;DHT22;39812;52.430;16.936;2023-03-20T09:01:39;12.20;99.90
53904;DHT22;39812;52.430;16.936;2023-03-20T09:04:05;12.50;99.90
53904;DHT22;39812;52.430;16.936;2023-03-20T09:06:30;12.70;99.90
53904;DHT22;39812;52.430;16.936;2023-03-20T09:08:57;12.90;99.90
53904;DHT22;39812;52.430;16.936;2023-03-20T09:11:23;12.90;99.90
53904;DHT22;39812;52.430;16.936;2023-03-20T09:13:49;12.70;99.90
53904;DHT22;39812;52.430;16.936;2023-03-20T09:16:15;12.60;99.90
53904;DHT22;39812;52.430;16.936;2023-03-20T09:18:40;12.60;99.90
53904;DHT22;39812;52.430;16.936;2023-03-20T09:21:06;12.50;99.90
53904;DHT22;39812;52.430;16.936;2023-03-20T09:23:32;12.40;99.90
53904;DHT22;39812;52.430;16.936;2023-03-20T09:25:58;12.90;99.90
53904;DHT22;39812;52.430;16.936;2023-03-20T09:28:24;13.00;99.90
53904;DHT22;39812;52.430;16.936;2023-03-20T09:30:57;13.00;99.90
53904;DHT22;39812;52.430;16.936;2023-03-20T09:33:23;13.20;99.90
53904;DHT22;39812;52.430;16.936;2023-03-20T09:35:49;13.60;99.90
53904;DHT22;39812;52.430;16.936;2023-03-20T09:38:15;14.20;99.90
53904;DHT22;39812;52.430;16.936;2023-03-20T09:43:21;14.50;99.90
53904;DHT22;39812;52.430;16.936;2023-03-20T09:48:38;14.20;99.90
53904;DHT22;39812;52.430;16.936;2023-03-20T09:51:19;14.50;99.90
53904;DHT22;39812;52.430;16.936;2023-03-20T09:53:51;14.20;99.90
53904;DHT22;39812;52.430;16.936;2023-03-20T09:56:25;14.30;99.90
53904;DHT22;39812;52.430;16.936;2023-03-20T09:58:54;14.50;99.90
53904;DHT22;39812;52.430;16.936;2023-03-20T10:01:23;14.50;99.90
53904;DHT22;39812;52.430;16.936;2023-03-20T10:03:57;14.80;99.90
53904;DHT22;39812;52.430;16.936;2023-03-20T10:06:23;15.10;99.90
53904;DHT22;39812;52.430;16.936;2023-03-20T10:08:50;15.40;99.90
53904;DHT22;39812;52.430;16.936;2023-03-20T10:19:35;15.60;99.90
53904;DHT22;39812;52.430;16.936;2023-03-20T10:22:24;15.70;99.90
53904;DHT22;39812;52.430;16.936;2023-03-20T10:24:59;15.90;99.90
53904;DHT22;39812;52.430;16.936;2023-03-20T10:27:32;15.50;99.90
53904;DHT22;39812;52.430;16.936;2023-03-20T10:35:31;15.90;99.90
53904;DHT22;39812;52.430;16.936;2023-03-20T10:40:34;16.90;99.90
53904;DHT22;39812;52.430;16.936;2023-03-20T10:48:39;17.00;99.90
53904;DHT22;39812;52.430;16.936;2023-03-20T10:51:17;17.60;99.90
53904;DHT22;39812;52.430;16.936;2023-03-20T10:53:49;17.30;99.90
53904;DHT22;39812;52.430;16.936;2023-03-20T10:56:43;17.50;99.90
53904;DHT22;39812;52.430;16.936;2023-03-20T10:59:26;17.40;99.90
53904;DHT22;39812;52.430;16.936;2023-03-20T11:01:52;16.80;99.90
53904;DHT22;39812;52.430;16.936;2023-03-20T11:04:18;16.70;99.90
53904;DHT22;39812;52.430;16.936;2023-03-20T11:07:00;16.80;99.90
53904;DHT22;39812;52.430;16.936;2023-03-20T11:09:27;17.00;99.90
53904;DHT22;39812;52.430;16.936;2023-03-20T11:11:59;16.60;99.90
53904;DHT22;39812;52.430;16.936;2023-03-20T11:14:35;16.30;99.90
53904;DHT22;39812;52.430;16.936;2023-03-20T11:17:03;15.80;99.90
53904;DHT22;39812;52.430;16.936;2023-03-20T11:19:35;15.50;99.90
53904;DHT22;39812;52.430;16.936;2023-03-20T11:24:49;15.70;99.90
53904;DHT22;39812;52.430;16.936;2023-03-20T11:27:24;15.90;99.90
53904;DHT22;39812;52.430;16.936;2023-03-20T11:29:51;15.60;99.90
53904;DHT22;39812;52.430;16.936;2023-03-20T11:34:56;16.50;99.90
53904;DHT22;39812;52.430;16.936;2023-03-20T11:37:27;16.40;99.60
53904;DHT22;39812;52.430;16.936;2023-03-20T11:45:34;16.30;99.30
53904;DHT22;39812;52.430;16.936;2023-03-20T11:48:01;16.10;99.40
53904;DHT22;39812;52.430;16.936;2023-03-20T11:50:36;16.20;99.20
53904;DHT22;39812;52.430;16.936;2023-03-20T11:53:16;16.70;98.50
53904;DHT22;39812;52.430;16.936;2023-03-20T11:55:56;16.00;99.00
53904;DHT22;39812;52.430;16.936;2023-03-20T11:58:22;16.20;98.70
53904;DHT22;39812;52.430;16.936;2023-03-20T12:00:50;16.30;97.30
53904;DHT22;39812;52.430;16.936;2023-03-20T12:06:18;16.30;97.80
53904;DHT22;39812;52.430;16.936;2023-03-20T12:09:30;16.10;97.80
53904;DHT22;39812;52.430;16.936;2023-03-20T12:11:44;16.10;97.90
53904;DHT22;39812;52.430;16.936;2023-03-20T12:17:24;18.60;95.00
53904;DHT22;39812;52.430;16.936;2023-03-20T12:19:55;19.00;93.40
53904;DHT22;39812;52.430;16.936;2023-03-20T12:22:25;20.70;91.70
53904;DHT22;39812;52.430;16.936;2023-03-20T12:27:43;22.10;88.70
53904;DHT22;39812;52.430;16.936;2023-03-20T12:30:18;22.90;83.90
53904;DHT22;39812;52.430;16.936;2023-03-20T12:35:47;24.20;80.20
53904;DHT22;39812;52.430;16.936;2023-03-20T12:38:29;23.50;77.50
53904;DHT22;39812;52.430;16.936;2023-03-20T12:41:28;22.00;78.40
53904;DHT22;39812;52.430;16.936;2023-03-20T12:46:38;18.40;87.50
53904;DHT22;39812;52.430;16.936;2023-03-20T12:55:03;19.20;88.60
53904;DHT22;39812;52.430;16.936;2023-03-20T13:00:39;21.20;83.90
53904;DHT22;39812;52.430;16.936;2023-03-20T13:03:21;19.70;84.80
53904;DHT22;39812;52.430;16.936;2023-03-20T13:06:12;18.40;87.80
53904;DHT22;39812;52.430;16.936;2023-03-20T13:08:55;17.70;90.30
53904;DHT22;39812;52.430;16.936;2023-03-20T13:11:50;17.10;91.10
53904;DHT22;39812;52.430;16.936;2023-03-20T13:26:20;17.90;90.10
53904;DHT22;39812;52.430;16.936;2023-03-20T13:36:26;15.40;92.80
53904;DHT22;39812;52.430;16.936;2023-03-20T13:39:02;15.50;93.50
53904;DHT22;39812;52.430;16.936;2023-03-20T13:41:28;15.60;93.50
53904;DHT22;39812;52.430;16.936;2023-03-20T13:44:00;15.80;93.30
53904;DHT22;39812;52.430;16.936;2023-03-20T14:05:25;15.90;91.90
53904;DHT22;39812;52.430;16.936;2023-03-20T14:07:56;15.70;92.60
53904;DHT22;39812;52.430;16.936;2023-03-20T14:13:05;15.50;93.40
53904;DHT22;39812;52.430;16.936;2023-03-20T14:15:36;15.30;93.80
53904;DHT22;39812;52.430;16.936;2023-03-20T14:18:12;15.10;94.10
53904;DHT22;39812;52.430;16.936;2023-03-20T14:20:40;15.20;94.20
53904;DHT22;39812;52.430;16.936;2023-03-20T14:23:19;15.10;94.20
53904;DHT22;39812;52.430;16.936;2023-03-20T14:25:46;15.00;94.60
53904;DHT22;39812;52.430;16.936;2023-03-20T14:33:21;14.60;95.50
53904;DHT22;39812;52.430;16.936;2023-03-20T14:41:21;14.30;96.30
53904;DHT22;39812;52.430;16.936;2023-03-20T14:46:42;14.40;96.80
53904;DHT22;39812;52.430;16.936;2023-03-20T14:52:08;14.10;96.70
53904;DHT22;39812;52.430;16.936;2023-03-20T14:54:39;13.80;97.30
53904;DHT22;39812;52.430;16.936;2023-03-20T14:57:20;13.60;98.10
53904;DHT22;39812;52.430;16.936;2023-03-20T14:59:51;13.50;98.90
53904;DHT22;39812;52.430;16.936;2023-03-20T15:02:31;13.50;99.50
53904;DHT22;39812;52.430;16.936;2023-03-20T15:04:58;13.30;99.90
53904;DHT22;39812;52.430;16.936;2023-03-20T15:07:28;13.20;99.90
53904;DHT22;39812;52.430;16.936;2023-03-20T15:09:56;13.20;99.90
53904;DHT22;39812;52.430;16.936;2023-03-20T15:12:26;13.00;99.90
53904;DHT22;39812;52.430;16.936;2023-03-20T15:15:00;13.00;99.90
53904;DHT22;39812;52.430;16.936;2023-03-20T15:17:38;12.90;99.90
53904;DHT22;39812;52.430;16.936;2023-03-20T15:20:24;12.60;99.90
53904;DHT22;39812;52.430;16.936;2023-03-20T15:22:56;12.50;99.90
53904;DHT22;39812;52.430;16.936;2023-03-20T15:25:27;12.30;99.90
53904;DHT22;39812;52.430;16.936;2023-03-20T15:27:53;12.00;99.90
53904;DHT22;39812;52.430;16.936;2023-03-20T15:30:20;12.00;99.90
53904;DHT22;39812;52.430;16.936;2023-03-20T15:32:48;12.00;99.90
53904;DHT22;39812;52.430;16.936;2023-03-20T15:35:19;12.00;99.90
53904;DHT22;39812;52.430;16.936;2023-03-20T15:37:48;11.90;99.90
53904;DHT22;39812;52.430;16.936;2023-03-20T15:40:24;11.70;99.90
53904;DHT22;39812;52.430;16.936;2023-03-20T15:43:03;11.70;99.90
53904;DHT22;39812;52.430;16.936;2023-03-20T15:45:34;11.70;99.90
53904;DHT22;39812;52.430;16.936;2023-03-20T15:48:05;11.60;99.90
53904;DHT22;39812;52.430;16.936;2023-03-20T15:50:37;11.50;99.90
53904;DHT22;39812;52.430;16.936;2023-03-20T15:53:06;11.40;99.90
53904;DHT22;39812;52.430;16.936;2023-03-20T15:55:36;11.40;99.90
53904;DHT22;39812;52.430;16.936;2023-03-20T15:58:02;11.40;99.90
53904;DHT22;39812;52.430;16.936;2023-03-20T16:00:37;11.30;99.90
53904;DHT22;39812;52.430;16.936;2023-03-20T16:03:12;11.20;99.90
53904;DHT22;39812;52.430;16.936;2023-03-20T16:05:42;11.20;99.90
53904;DHT22;39812;52.430;16.936;2023-03-20T16:08:22;11.20;99.90
53904;DHT22;39812;52.430;16.936;2023-03-20T16:10:53;11.10;99.90
53904;DHT22;39812;52.430;16.936;2023-03-20T16:13:19;11.10;99.90
53904;DHT22;39812;52.430;16.936;2023-03-20T16:15:48;11.10;99.90
53904;DHT22;39812;52.430;16.936;2023-03-20T16:18:15;11.00;99.90
53904;DHT22;39812;52.430;16.936;2023-03-20T16:21:04;11.00;99.90
53904;DHT22;39812;52.430;16.936;2023-03-20T16:23:39;10.90;99.90
53904;DHT22;39812;52.430;16.936;2023-03-20T16:26:07;10.80;99.90
53904;DHT22;39812;52.430;16.936;2023-03-20T16:28:36;10.80;99.90
53904;DHT22;39812;52.430;16.936;2023-03-20T16:33:40;10.70;99.90
53904;DHT22;39812;52.430;16.936;2023-03-20T16:36:06;10.80;99.90
53904;DHT22;39812;52.430;16.936;2023-03-20T16:38:34;10.70;99.90
53904;DHT22;39812;52.430;16.936;2023-03-20T16:41:30;10.70;99.90
53904;DHT22;39812;52.430;16.936;2023-03-20T16:43:56;10.70;99.90
53904;DHT22;39812;52.430;16.936;2023-03-20T16:46:24;10.60;99.90
53904;DHT22;39812;52.430;16.936;2023-03-20T16:48:55;10.60;99.90
53904;DHT22;39812;52.430;16.936;2023-03-20T16:51:26;10.50;99.90
53904;DHT22;39812;52.430;16.936;2023-03-20T16:53:58;10.50;99.90
53904;DHT22;39812;52.430;16.936;2023-03-20T16:58:57;10.50;99.90
53904;DHT22;39812;52.430;16.936;2023-03-20T17:01:26;10.50;99.90
53904;DHT22;39812;52.430;16.936;2023-03-20T17:03:57;10.50;99.90
53904;DHT22;39812;52.430;16.936;2023-03-20T17:06:35;10.50;99.90
53904;DHT22;39812;52.430;16.936;2023-03-20T17:11:49;10.60;99.90
53904;DHT22;39812;52.430;16.936;2023-03-20T17:14:15;10.60;99.90
53904;DHT22;39812;52.430;16.936;2023-03-20T17:16:41;10.60;99.90
53904;DHT22;39812;52.430;16.936;2023-03-20T17:19:17;10.60;99.90
53904;DHT22;39812;52.430;16.936;2023-03-20T17:21:44;10.60;99.90
53904;DHT22;39812;52.430;16.936;2023-03-20T17:24:11;10.60;99.90
53904;DHT22;39812;52.430;16.936;2023-03-20T17:26:37;10.60;99.90
53904;DHT22;39812;52.430;16.936;2023-03-20T17:29:04;10.60;99.90
53904;DHT22;39812;52.430;16.936;2023-03-20T17:31:30;10.60;99.90
53904;DHT22;39812;52.430;16.936;2023-03-20T17:33:56;10.50;99.90
53904;DHT22;39812;52.430;16.936;2023-03-20T17:36:27;10.50;99.90
53904;DHT22;39812;52.430;16.936;2023-03-20T17:38:54;10.50;99.90
53904;DHT22;39812;52.430;16.936;2023-03-20T17:41:20;10.50;99.90
53904;DHT22;39812;52.430;16.936;2023-03-20T17:43:47;10.50;99.90
53904;DHT22;39812;52.430;16.936;2023-03-20T17:48:41;10.40;99.90
53904;DHT22;39812;52.430;16.936;2023-03-20T17:51:08;10.40;99.90
53904;DHT22;39812;52.430;16.936;2023-03-20T17:53:34;10.40;99.90
53904;DHT22;39812;52.430;16.936;2023-03-20T17:56:00;10.30;99.90
53904;DHT22;39812;52.430;16.936;2023-03-20T17:58:26;10.30;99.90
53904;DHT22;39812;52.430;16.936;2023-03-20T18:00:53;10.40;99.90
53904;DHT22;39812;52.430;16.936;2023-03-20T18:03:19;10.30;99.90
53904;DHT22;39812;52.430;16.936;2023-03-20T18:05:47;10.30;99.90
53904;DHT22;39812;52.430;16.936;2023-03-20T18:08:20;10.40;99.90
53904;DHT22;39812;52.430;16.936;2023-03-20T18:10:51;10.30;99.90
53904;DHT22;39812;52.430;16.936;2023-03-20T18:13:22;10.30;99.90
53904;DHT22;39812;52.430;16.936;2023-03-20T18:15:53;10.30;99.90
53904;DHT22;39812;52.430;16.936;2023-03-20T18:18:19;10.30;99.90
53904;DHT22;39812;52.430;16.936;2023-03-20T18:20:46;10.30;99.90
53904;DHT22;39812;52.430;16.936;2023-03-20T18:23:12;10.30;99.90
53904;DHT22;39812;52.430;16.936;2023-03-20T18:25:38;10.30;99.90
53904;DHT22;39812;52.430;16.936;2023-03-20T18:28:06;10.30;99.90
53904;DHT22;39812;52.430;16.936;2023-03-20T18:30:37;10.30;99.90